createdAt,value
2018-07-13T00:00:59.298Z,993.12
2018-07-13T00:01:59.293Z,993.13
2018-07-13T00:02:59.295Z,993.15
2018-07-13T00:03:59.288Z,993.13
2018-07-13T00:04:59.297Z,993.2
2018-07-13T00:05:59.295Z,993.19
2018-07-13T00:06:59.297Z,993.19
2018-07-13T00:07:59.294Z,993.16
2018-07-13T00:08:59.296Z,993.19
2018-07-13T00:09:59.304Z,993.15
2018-07-13T00:10:59.307Z,993.15
2018-07-13T00:11:59.305Z,993.18
2018-07-13T00:12:59.293Z,993.13
2018-07-13T00:13:59.295Z,993.15
2018-07-13T00:14:59.298Z,993.18
2018-07-13T00:15:59.306Z,993.16
2018-07-13T00:16:59.298Z,993.19
2018-07-13T00:17:59.307Z,993.18
2018-07-13T00:18:59.303Z,993.2
2018-07-13T00:19:59.319Z,993.22
2018-07-13T00:20:59.307Z,993.23
2018-07-13T00:21:59.319Z,993.2
2018-07-13T00:22:59.296Z,993.22
2018-07-13T00:23:59.298Z,993.18
2018-07-13T00:24:59.297Z,993.21
2018-07-13T00:25:59.303Z,993.17
2018-07-13T00:26:59.321Z,993.21
2018-07-13T00:27:59.302Z,993.22
2018-07-13T00:28:59.295Z,993.21
2018-07-13T00:29:59.298Z,993.2
2018-07-13T00:30:59.302Z,993.24
2018-07-13T00:31:59.306Z,993.2
2018-07-13T00:32:59.299Z,993.21
2018-07-13T00:33:59.300Z,993.18
2018-07-13T00:34:59.301Z,993.18
2018-07-13T00:35:59.309Z,993.17
2018-07-13T00:36:59.303Z,993.16
2018-07-13T00:37:59.297Z,993.16
2018-07-13T00:38:59.313Z,993.16
2018-07-13T00:39:59.305Z,993.19
2018-07-13T00:40:59.299Z,993.18
2018-07-13T00:41:59.307Z,993.18
2018-07-13T00:42:59.298Z,993.22
2018-07-13T00:44:01.152Z,993.21
2018-07-13T00:44:59.307Z,993.19
2018-07-13T00:45:59.305Z,993.21
2018-07-13T00:46:59.300Z,993.21
2018-07-13T00:47:59.314Z,993.19
2018-07-13T00:48:59.300Z,993.2
2018-07-13T00:49:59.302Z,993.21
2018-07-13T00:50:59.302Z,993.21
2018-07-13T00:51:59.305Z,993.2
2018-07-13T00:52:59.314Z,993.17
2018-07-13T00:53:59.309Z,993.18
2018-07-13T00:54:59.302Z,993.19
2018-07-13T00:55:59.304Z,993.16
2018-07-13T00:56:59.316Z,993.17
2018-07-13T00:57:59.319Z,993.18
2018-07-13T00:58:59.314Z,993.22
2018-07-13T00:59:59.315Z,993.2
2018-07-13T01:00:59.332Z,993.2
2018-07-13T01:01:59.318Z,993.2
2018-07-13T01:02:59.304Z,993.17
2018-07-13T01:03:59.316Z,993.22
2018-07-13T01:04:59.312Z,993.19
2018-07-13T01:05:59.314Z,993.2
2018-07-13T01:06:59.315Z,993.2
2018-07-13T01:07:59.312Z,993.26
2018-07-13T01:08:59.329Z,993.17
2018-07-13T01:09:59.320Z,993.28
2018-07-13T01:10:59.318Z,993.26
2018-07-13T01:11:59.312Z,993.28
2018-07-13T01:12:59.318Z,993.24
2018-07-13T01:13:59.310Z,993.27
2018-07-13T01:14:59.316Z,993.25
2018-07-13T01:15:59.319Z,993.26
2018-07-13T01:16:59.323Z,993.3
2018-07-13T01:17:59.316Z,993.31
2018-07-13T01:18:59.322Z,993.33
2018-07-13T01:19:59.329Z,993.33
2018-07-13T01:20:59.339Z,993.41
2018-07-13T01:21:59.317Z,993.44
2018-07-13T01:22:59.322Z,993.43
2018-07-13T01:23:59.322Z,993.44
2018-07-13T01:24:59.318Z,993.46
2018-07-13T01:25:59.317Z,993.46
2018-07-13T01:26:59.318Z,993.44
2018-07-13T01:27:59.313Z,993.46
2018-07-13T01:28:59.305Z,993.44
2018-07-13T01:29:59.322Z,993.5
2018-07-13T01:30:59.345Z,993.52
2018-07-13T01:31:59.319Z,993.52
2018-07-13T01:32:59.317Z,993.47
2018-07-13T01:33:59.304Z,993.48
2018-07-13T01:34:59.315Z,993.48
2018-07-13T01:35:59.304Z,993.44
2018-07-13T01:36:59.308Z,993.49
2018-07-13T01:37:59.308Z,993.49
2018-07-13T01:38:59.313Z,993.49
2018-07-13T01:39:59.312Z,993.51
2018-07-13T01:40:59.301Z,993.49
2018-07-13T01:41:59.303Z,993.45
2018-07-13T01:42:59.304Z,993.5
2018-07-13T01:43:59.303Z,993.48
2018-07-13T01:44:59.302Z,993.5
2018-07-13T01:45:59.306Z,993.45
2018-07-13T01:46:59.300Z,993.52
2018-07-13T01:47:59.304Z,993.49
2018-07-13T01:48:59.301Z,993.49
2018-07-13T01:49:59.303Z,993.48
2018-07-13T01:50:59.305Z,993.47
2018-07-13T01:51:59.315Z,993.45
2018-07-13T01:52:59.304Z,993.44
2018-07-13T01:53:59.299Z,993.41
2018-07-13T01:54:59.306Z,993.44
2018-07-13T01:55:59.309Z,993.39
2018-07-13T01:56:59.297Z,993.41
2018-07-13T01:57:59.305Z,993.48
2018-07-13T01:58:59.307Z,993.44
2018-07-13T01:59:59.302Z,993.43
2018-07-13T02:00:59.304Z,993.43
2018-07-13T02:01:59.303Z,993.43
2018-07-13T02:02:59.295Z,993.42
2018-07-13T02:03:59.296Z,993.46
2018-07-13T02:04:59.292Z,993.44
2018-07-13T02:05:59.295Z,993.45
2018-07-13T02:06:59.296Z,993.44
2018-07-13T02:07:59.304Z,993.45
2018-07-13T02:08:59.292Z,993.47
2018-07-13T02:09:59.289Z,993.49
2018-07-13T02:10:59.300Z,993.51
2018-07-13T02:11:59.292Z,993.5
2018-07-13T02:12:59.291Z,993.5
2018-07-13T02:13:59.293Z,993.46
2018-07-13T02:14:59.294Z,993.46
2018-07-13T02:15:59.303Z,993.49
2018-07-13T02:16:59.299Z,993.46
2018-07-13T02:17:59.298Z,993.45
2018-07-13T02:18:59.302Z,993.45
2018-07-13T02:19:59.298Z,993.44
2018-07-13T02:20:59.300Z,993.48
2018-07-13T02:21:59.285Z,993.43
2018-07-13T02:22:59.280Z,993.44
2018-07-13T02:23:59.301Z,993.45
2018-07-13T02:24:59.285Z,993.45
2018-07-13T02:25:59.307Z,993.45
2018-07-13T02:26:59.276Z,993.45
2018-07-13T02:27:59.274Z,993.43
2018-07-13T02:28:59.275Z,993.43
2018-07-13T02:29:59.279Z,993.47
2018-07-13T02:30:59.275Z,993.48
2018-07-13T02:31:59.282Z,993.48
2018-07-13T02:32:59.276Z,993.48
2018-07-13T02:33:59.339Z,993.49
2018-07-13T02:34:59.323Z,993.51
2018-07-13T02:35:59.278Z,993.51
2018-07-13T02:36:59.284Z,993.52
2018-07-13T02:37:59.286Z,993.5
2018-07-13T02:38:59.397Z,993.5
2018-07-13T02:39:59.309Z,993.47
2018-07-13T02:40:59.273Z,993.51
2018-07-13T02:41:59.275Z,993.49
2018-07-13T02:42:59.268Z,993.44
2018-07-13T02:43:59.267Z,993.46
2018-07-13T02:44:59.266Z,993.48
2018-07-13T02:45:59.268Z,993.46
2018-07-13T02:46:59.283Z,993.51
2018-07-13T02:47:59.265Z,993.51
2018-07-13T02:48:59.265Z,993.53
2018-07-13T02:49:59.266Z,993.48
2018-07-13T02:50:59.264Z,993.53
2018-07-13T02:51:59.261Z,993.51
2018-07-13T02:52:59.264Z,993.51
2018-07-13T02:53:59.260Z,993.52
2018-07-13T02:54:59.259Z,993.53
2018-07-13T02:55:59.290Z,993.58
2018-07-13T02:56:59.259Z,993.59
2018-07-13T02:57:59.267Z,993.61
2018-07-13T02:58:59.256Z,993.57
2018-07-13T02:59:59.258Z,993.57
2018-07-13T03:00:59.260Z,993.6
2018-07-13T03:01:59.258Z,993.62
2018-07-13T03:02:59.278Z,993.62
2018-07-13T03:03:59.261Z,993.63
2018-07-13T03:04:59.255Z,993.67
2018-07-13T03:05:59.255Z,993.66
2018-07-13T03:06:59.257Z,993.73
2018-07-13T03:07:59.256Z,993.71
2018-07-13T03:08:59.253Z,993.74
2018-07-13T03:09:59.259Z,993.73
2018-07-13T03:10:59.253Z,993.72
2018-07-13T03:11:59.250Z,993.69
2018-07-13T03:12:59.251Z,993.7
2018-07-13T03:13:59.253Z,993.68
2018-07-13T03:14:59.250Z,993.67
2018-07-13T03:15:59.247Z,993.73
2018-07-13T03:16:59.247Z,993.75
2018-07-13T03:17:59.258Z,993.75
2018-07-13T03:18:59.251Z,993.78
2018-07-13T03:19:59.256Z,993.8
2018-07-13T03:20:59.330Z,993.81
2018-07-13T03:21:59.295Z,993.77
2018-07-13T03:22:59.258Z,993.82
2018-07-13T03:23:59.260Z,993.81
2018-07-13T03:24:59.249Z,993.79
2018-07-13T03:25:59.254Z,993.81
2018-07-13T03:26:59.256Z,993.81
2018-07-13T03:27:59.257Z,993.84
2018-07-13T03:28:59.239Z,993.8
2018-07-13T03:29:59.256Z,993.82
2018-07-13T03:30:59.255Z,993.85
2018-07-13T03:31:59.254Z,993.81
2018-07-13T03:32:59.238Z,993.83
2018-07-13T03:33:59.238Z,993.82
2018-07-13T03:34:59.257Z,993.83
2018-07-13T03:35:59.235Z,993.85
2018-07-13T03:36:59.234Z,993.86
2018-07-13T03:37:59.810Z,993.79
2018-07-13T03:38:59.235Z,993.83
2018-07-13T03:39:59.230Z,993.8
2018-07-13T03:40:59.230Z,993.84
2018-07-13T03:41:59.232Z,993.83
2018-07-13T03:42:59.229Z,993.78
2018-07-13T03:43:59.253Z,993.83
2018-07-13T03:44:59.477Z,993.85
2018-07-13T03:45:59.227Z,993.87
2018-07-13T03:46:59.228Z,993.91
2018-07-13T03:47:59.224Z,993.88
2018-07-13T03:48:59.223Z,993.88
2018-07-13T03:49:59.224Z,993.87
2018-07-13T03:50:59.224Z,993.85
2018-07-13T03:51:59.223Z,993.85
2018-07-13T03:52:59.218Z,993.89
2018-07-13T03:53:59.220Z,993.88
2018-07-13T03:54:59.219Z,993.87
2018-07-13T03:55:59.217Z,993.87
2018-07-13T03:56:59.217Z,993.93
2018-07-13T03:57:59.219Z,993.93
2018-07-13T03:58:59.214Z,993.92
2018-07-13T03:59:59.214Z,993.96
2018-07-13T04:00:59.271Z,993.92
2018-07-13T04:01:59.212Z,993.95
2018-07-13T04:02:59.210Z,993.94
2018-07-13T04:03:59.211Z,993.94
2018-07-13T04:04:59.210Z,993.99
2018-07-13T04:05:59.211Z,994.02
2018-07-13T04:06:59.253Z,994.07
2018-07-13T04:07:59.215Z,994.1
2018-07-13T04:08:59.233Z,994.09
2018-07-13T04:09:59.210Z,994.08
2018-07-13T04:10:59.214Z,994.07
2018-07-13T04:11:59.230Z,994.02
2018-07-13T04:12:59.208Z,994.03
2018-07-13T04:13:59.211Z,994.04
2018-07-13T04:14:59.211Z,994.06
2018-07-13T04:15:59.211Z,994.08
2018-07-13T04:16:59.213Z,994.06
2018-07-13T04:17:59.217Z,994.06
2018-07-13T04:18:59.207Z,994.15
2018-07-13T04:19:59.214Z,994.09
2018-07-13T04:20:59.202Z,994.08
2018-07-13T04:21:59.203Z,994.14
2018-07-13T04:22:59.204Z,994.08
2018-07-13T04:23:59.202Z,994.03
2018-07-13T04:24:59.204Z,994.07
2018-07-13T04:25:59.215Z,994.08
2018-07-13T04:26:59.205Z,994.09
2018-07-13T04:27:59.204Z,994.09
2018-07-13T04:28:59.222Z,994.09
2018-07-13T04:29:59.206Z,994.09
2018-07-13T04:30:59.207Z,994.09
2018-07-13T04:31:59.207Z,994.11
2018-07-13T04:32:59.209Z,994.13
2018-07-13T04:33:59.211Z,994.17
2018-07-13T04:34:59.210Z,994.17
2018-07-13T04:35:59.209Z,994.2
2018-07-13T04:36:59.221Z,994.16
2018-07-13T04:37:59.213Z,994.1
2018-07-13T04:38:59.215Z,994.09
2018-07-13T04:39:59.215Z,994.13
2018-07-13T04:40:59.287Z,994.11
2018-07-13T04:41:59.221Z,994.05
2018-07-13T04:42:59.218Z,994.09
2018-07-13T04:43:59.221Z,994.05
2018-07-13T04:44:59.226Z,993.97
2018-07-13T04:45:59.224Z,994.06
2018-07-13T04:46:59.228Z,994.06
2018-07-13T04:47:59.228Z,994.03
2018-07-13T04:48:59.230Z,994.01
2018-07-13T04:49:59.231Z,993.98
2018-07-13T04:50:59.234Z,993.97
2018-07-13T04:51:59.237Z,994
2018-07-13T04:52:59.237Z,994
2018-07-13T04:53:59.238Z,994.02
2018-07-13T04:54:59.245Z,994
2018-07-13T04:55:59.246Z,994.02
2018-07-13T04:56:59.252Z,994.01
2018-07-13T04:57:59.253Z,994.01
2018-07-13T04:58:59.254Z,994.04
2018-07-13T04:59:59.262Z,994.06
2018-07-13T05:00:59.266Z,994.05
2018-07-13T05:01:59.270Z,994.06
2018-07-13T05:02:59.269Z,994.03
2018-07-13T05:03:59.273Z,994.02
2018-07-13T05:04:59.276Z,994.03
2018-07-13T05:05:59.278Z,994.04
2018-07-13T05:06:59.287Z,993.99
2018-07-13T05:07:59.294Z,994.01
2018-07-13T05:08:59.299Z,994.08
2018-07-13T05:09:59.293Z,994.06
2018-07-13T05:10:59.308Z,994.05
2018-07-13T05:11:59.309Z,994.04
2018-07-13T05:12:59.310Z,994.03
2018-07-13T05:13:59.313Z,994.05
2018-07-13T05:15:00.117Z,994.08
2018-07-13T05:15:59.327Z,994.04
2018-07-13T05:16:59.333Z,994.06
2018-07-13T05:17:59.334Z,994.05
2018-07-13T05:18:59.333Z,994.06
2018-07-13T05:19:59.340Z,994.03
2018-07-13T05:20:59.357Z,994.05
2018-07-13T05:21:59.352Z,994.01
2018-07-13T05:22:59.361Z,993.98
2018-07-13T05:23:59.357Z,994
2018-07-13T05:24:59.369Z,994.03
2018-07-13T05:25:59.374Z,994.03
2018-07-13T05:26:59.392Z,993.99
2018-07-13T05:27:59.377Z,994
2018-07-13T05:28:59.383Z,993.99
2018-07-13T05:29:59.394Z,994.03
2018-07-13T05:30:59.394Z,994.03
2018-07-13T05:31:59.397Z,994.04
2018-07-13T05:32:59.401Z,994.06
2018-07-13T05:33:59.411Z,994.12
2018-07-13T05:34:59.416Z,994.14
2018-07-13T05:35:59.422Z,994.11
2018-07-13T05:36:59.426Z,994.15
2018-07-13T05:37:59.431Z,994.15
2018-07-13T05:38:59.434Z,994.16
2018-07-13T05:39:59.438Z,994.21
2018-07-13T05:40:59.450Z,994.18
2018-07-13T05:41:59.451Z,994.2
2018-07-13T05:42:59.457Z,994.15
2018-07-13T05:43:59.463Z,994.19
2018-07-13T05:44:59.471Z,994.18
2018-07-13T05:45:59.476Z,994.17
2018-07-13T05:46:59.496Z,994.17
2018-07-13T05:47:59.488Z,994.18
2018-07-13T05:48:59.494Z,994.25
2018-07-13T05:49:59.500Z,994.26
2018-07-13T05:50:59.507Z,994.19
2018-07-13T05:51:59.510Z,994.18
2018-07-13T05:52:59.520Z,994.17
2018-07-13T05:53:59.525Z,994.22
2018-07-13T05:54:59.531Z,994.21
2018-07-13T05:55:59.539Z,994.23
2018-07-13T05:56:59.544Z,994.19
2018-07-13T05:57:59.552Z,994.23
2018-07-13T05:58:59.557Z,994.18
2018-07-13T05:59:59.579Z,994.19
2018-07-13T06:00:59.574Z,994.18
2018-07-13T06:01:59.575Z,994.21
2018-07-13T06:02:59.584Z,994.17
2018-07-13T06:03:59.704Z,994.19
2018-07-13T06:04:59.597Z,994.22
2018-07-13T06:05:59.602Z,994.22
2018-07-13T06:06:59.611Z,994.22
2018-07-13T06:07:59.614Z,994.19
2018-07-13T06:08:59.624Z,994.25
2018-07-13T06:09:59.640Z,994.26
2018-07-13T06:10:59.642Z,994.27
2018-07-13T06:11:59.643Z,994.27
2018-07-13T06:12:59.650Z,994.26
2018-07-13T06:13:59.658Z,994.28
2018-07-13T06:23:43.741Z,994.28
2018-07-13T06:24:43.740Z,994.25
2018-07-13T06:25:43.742Z,994.22
2018-07-13T06:26:43.746Z,994.24
2018-07-13T06:27:43.753Z,994.22
2018-07-13T06:28:43.759Z,994.22
2018-07-13T06:29:43.765Z,994.26
2018-07-13T06:30:43.768Z,994.21
2018-07-13T06:31:43.778Z,994.21
2018-07-13T06:32:43.781Z,994.23
2018-07-13T06:33:43.787Z,994.25
2018-07-13T06:34:43.796Z,994.22
2018-07-13T06:35:43.806Z,994.26
2018-07-13T06:36:43.823Z,994.24
2018-07-13T06:37:43.828Z,994.23
2018-07-13T06:38:43.826Z,994.24
2018-07-13T06:39:43.830Z,994.19
2018-07-13T06:40:43.847Z,994.21
2018-07-13T06:41:43.843Z,994.26
2018-07-13T06:42:43.850Z,994.24
2018-07-13T06:43:43.857Z,994.25
2018-07-13T06:44:43.876Z,994.24
2018-07-13T06:45:43.881Z,994.27
2018-07-13T06:46:43.879Z,994.28
2018-07-13T06:47:43.888Z,994.33
2018-07-13T06:48:43.890Z,994.33
2018-07-13T06:49:43.899Z,994.28
2018-07-13T06:50:43.945Z,994.34
2018-07-13T06:51:43.919Z,994.36
2018-07-13T06:52:43.919Z,994.35
2018-07-13T06:53:43.932Z,994.36
2018-07-13T06:54:43.939Z,994.32
2018-07-13T06:55:43.946Z,994.34
2018-07-13T06:56:43.989Z,994.33
2018-07-13T06:57:43.959Z,994.35
2018-07-13T06:58:43.966Z,994.34
2018-07-13T06:59:43.975Z,994.37
2018-07-13T07:00:43.983Z,994.39
2018-07-13T07:01:43.990Z,994.35
2018-07-13T07:02:43.998Z,994.35
2018-07-13T07:03:44.005Z,994.38
2018-07-13T07:04:44.013Z,994.33
2018-07-13T07:05:44.020Z,994.36
2018-07-13T07:06:44.039Z,994.36
2018-07-13T07:07:44.116Z,994.33
2018-07-13T07:08:44.051Z,994.35
2018-07-13T07:09:44.060Z,994.31
2018-07-13T07:10:44.059Z,994.32
2018-07-13T07:11:44.066Z,994.31
2018-07-13T07:12:44.077Z,994.3
2018-07-13T07:13:44.083Z,994.3
2018-07-13T07:14:44.100Z,994.27
2018-07-13T07:15:44.099Z,994.22
2018-07-13T07:16:44.112Z,994.26
2018-07-13T07:17:44.128Z,994.23
2018-07-13T07:18:44.121Z,994.23
2018-07-13T07:19:44.126Z,994.27
2018-07-13T07:20:44.137Z,994.3
2018-07-13T07:21:44.144Z,994.25
2018-07-13T07:22:44.155Z,994.26
2018-07-13T07:23:44.160Z,994.28
2018-07-13T07:24:44.164Z,994.3
2018-07-13T07:25:44.172Z,994.28
2018-07-13T07:26:44.178Z,994.24
2018-07-13T07:27:44.187Z,994.28
2018-07-13T07:28:44.193Z,994.25
2018-07-13T07:29:44.203Z,994.27
2018-07-13T07:30:44.337Z,994.27
2018-07-13T07:31:44.230Z,994.26
2018-07-13T07:32:44.227Z,994.28
2018-07-13T07:33:44.236Z,994.21
2018-07-13T07:34:44.238Z,994.21
2018-07-13T07:35:44.246Z,994.18
2018-07-13T07:36:44.254Z,994.2
2018-07-13T07:37:44.271Z,994.19
2018-07-13T07:38:44.271Z,994.24
2018-07-13T07:39:44.280Z,994.22
2018-07-13T07:40:44.285Z,994.25
2018-07-13T07:41:44.292Z,994.24
2018-07-13T07:42:44.302Z,994.26
2018-07-13T07:43:44.306Z,994.21
2018-07-13T07:44:44.315Z,994.23
2018-07-13T07:45:44.326Z,994.21
2018-07-13T07:46:44.355Z,994.24
2018-07-13T07:47:44.345Z,994.21
2018-07-13T07:48:44.352Z,994.19
2018-07-13T07:49:44.362Z,994.18
2018-07-13T07:50:44.367Z,994.17
2018-07-13T07:51:44.388Z,994.18
2018-07-13T07:52:44.390Z,994.18
2018-07-13T07:53:44.395Z,994.16
2018-07-13T07:54:44.401Z,994.17
2018-07-13T07:55:44.415Z,994.16
2018-07-13T07:56:44.421Z,994.15
2018-07-13T07:57:44.429Z,994.13
2018-07-13T07:58:44.437Z,994.12
2018-07-13T07:59:44.457Z,994.16
2018-07-13T08:00:44.465Z,994.14
2018-07-13T08:01:44.524Z,994.18
2018-07-13T08:02:44.475Z,994.16
2018-07-13T08:03:44.484Z,994.18
2018-07-13T08:04:44.500Z,994.17
2018-07-13T08:05:44.503Z,994.16
2018-07-13T08:06:44.675Z,994.13
2018-07-13T08:07:44.523Z,994.16
2018-07-13T08:08:44.528Z,994.13
2018-07-13T08:09:44.535Z,994.1
2018-07-13T08:10:44.572Z,994.14
2018-07-13T08:11:44.554Z,994.1
2018-07-13T08:12:44.560Z,994.13
2018-07-13T08:13:44.621Z,994.11
2018-07-13T08:14:44.579Z,994.13
2018-07-13T08:15:44.651Z,994.12
2018-07-13T08:16:44.597Z,994.13
2018-07-13T08:17:44.613Z,994.09
2018-07-13T08:18:44.618Z,994.03
2018-07-13T08:19:44.632Z,994.04
2018-07-13T08:20:44.633Z,994.03
2018-07-13T08:21:44.648Z,994
2018-07-13T08:22:44.660Z,993.99
2018-07-13T08:23:44.664Z,993.99
2018-07-13T08:24:44.676Z,993.97
2018-07-13T08:25:44.687Z,993.94
2018-07-13T08:26:44.719Z,993.97
2018-07-13T08:27:44.701Z,993.96
2018-07-13T08:28:44.710Z,993.95
2018-07-13T08:29:44.721Z,993.92
2018-07-13T08:30:44.732Z,993.91
2018-07-13T08:31:44.741Z,993.88
2018-07-13T08:32:44.750Z,993.83
2018-07-13T08:33:44.760Z,993.87
2018-07-13T08:34:44.770Z,993.85
2018-07-13T08:35:44.782Z,993.87
2018-07-13T08:36:44.788Z,993.85
2018-07-13T08:37:44.802Z,993.82
2018-07-13T08:38:44.807Z,993.83
2018-07-13T08:39:44.817Z,993.83
2018-07-13T08:40:44.894Z,993.83
2018-07-13T08:41:44.839Z,993.83
2018-07-13T08:42:44.845Z,993.8
2018-07-13T08:43:44.860Z,993.8
2018-07-13T08:44:44.874Z,993.79
2018-07-13T08:45:44.985Z,993.81
2018-07-13T08:46:44.884Z,993.78
2018-07-13T08:47:44.896Z,993.77
2018-07-13T08:48:44.900Z,993.8
2018-07-13T08:49:44.910Z,993.79
2018-07-13T08:50:44.978Z,993.8
2018-07-13T08:51:45.017Z,993.77
2018-07-13T08:52:44.936Z,993.84
2018-07-13T08:53:44.944Z,993.85
2018-07-13T08:54:44.958Z,993.83
2018-07-13T08:55:44.962Z,993.81
2018-07-13T08:56:44.981Z,993.79
2018-07-13T08:57:44.982Z,993.74
2018-07-13T08:58:44.991Z,993.79
2018-07-13T08:59:45.015Z,993.77
2018-07-13T09:00:45.031Z,993.77
2018-07-13T09:01:45.187Z,993.77
2018-07-13T09:02:45.033Z,993.76
2018-07-13T09:03:45.037Z,993.78
2018-07-13T09:04:45.068Z,993.79
2018-07-13T09:05:45.079Z,993.77
2018-07-13T09:06:45.069Z,993.8
2018-07-13T09:07:45.067Z,993.8
2018-07-13T09:08:45.078Z,993.79
2018-07-13T09:09:45.086Z,993.79
2018-07-13T09:10:45.212Z,993.77
2018-07-13T09:11:45.194Z,993.74
2018-07-13T09:12:45.115Z,993.72
2018-07-13T09:13:45.131Z,993.71
2018-07-13T09:14:45.127Z,993.72
2018-07-13T09:15:45.132Z,993.78
2018-07-13T09:16:45.140Z,993.77
2018-07-13T09:17:45.149Z,993.76
2018-07-13T09:18:45.154Z,993.79
2018-07-13T09:19:45.162Z,993.81
2018-07-13T09:20:45.165Z,993.82
2018-07-13T09:21:45.174Z,993.8
2018-07-13T09:22:45.181Z,993.76
2018-07-13T09:23:45.188Z,993.78
2018-07-13T09:24:45.195Z,993.77
2018-07-13T09:25:45.200Z,993.76
2018-07-13T09:26:45.225Z,993.81
2018-07-13T09:27:45.224Z,993.81
2018-07-13T09:28:45.218Z,993.78
2018-07-13T09:29:45.224Z,993.76
2018-07-13T09:30:45.341Z,993.76
2018-07-13T09:31:45.250Z,993.77
2018-07-13T09:32:45.247Z,993.78
2018-07-13T09:33:45.253Z,993.8
2018-07-13T09:34:45.255Z,993.79
2018-07-13T09:35:45.324Z,993.8
2018-07-13T09:36:45.267Z,993.82
2018-07-13T09:37:45.280Z,993.83
2018-07-13T09:38:45.280Z,993.79
2018-07-13T09:39:45.288Z,993.83
2018-07-13T09:40:45.291Z,993.82
2018-07-13T09:41:45.297Z,993.81
2018-07-13T09:42:45.311Z,993.8
2018-07-13T09:43:45.308Z,993.78
2018-07-13T09:44:45.316Z,993.81
2018-07-13T09:45:45.322Z,993.82
2018-07-13T09:46:45.403Z,993.82
2018-07-13T09:47:45.328Z,993.84
2018-07-13T09:48:45.334Z,993.87
2018-07-13T09:49:45.338Z,993.8
2018-07-13T09:50:45.430Z,993.8
2018-07-13T09:51:45.352Z,993.81
2018-07-13T09:52:45.356Z,993.81
2018-07-13T09:53:45.465Z,993.76
2018-07-13T09:54:45.367Z,993.8
2018-07-13T09:55:45.467Z,993.8
2018-07-13T09:56:45.381Z,993.81
2018-07-13T09:57:45.384Z,993.78
2018-07-13T09:58:45.389Z,993.82
2018-07-13T09:59:45.395Z,993.83
2018-07-13T10:00:45.545Z,993.78
2018-07-13T10:01:45.407Z,993.8
2018-07-13T10:02:45.408Z,993.84
2018-07-13T10:03:45.417Z,993.83
2018-07-13T10:04:45.430Z,993.83
2018-07-13T10:05:45.444Z,993.9
2018-07-13T10:06:45.431Z,993.83
2018-07-13T10:07:45.436Z,993.87
2018-07-13T10:08:45.441Z,993.79
2018-07-13T10:09:45.445Z,993.84
2018-07-13T10:10:45.495Z,993.81
2018-07-13T10:11:45.455Z,993.83
2018-07-13T10:12:45.461Z,993.82
2018-07-13T10:13:45.467Z,993.83
2018-07-13T10:14:45.484Z,993.79
2018-07-13T10:15:45.595Z,993.81
2018-07-13T10:16:45.484Z,993.79
2018-07-13T10:17:45.496Z,993.81
2018-07-13T10:18:45.499Z,993.82
2018-07-13T10:19:45.506Z,993.79
2018-07-13T10:20:45.620Z,993.83
2018-07-13T10:21:45.509Z,993.82
2018-07-13T10:22:45.522Z,993.83
2018-07-13T10:54:12.018Z,993.82
2018-07-13T10:55:12.031Z,993.82
2018-07-13T10:56:11.990Z,993.76
2018-07-13T10:57:11.986Z,993.76
2018-07-13T10:58:11.989Z,993.77
2018-07-13T10:59:11.993Z,993.74
2018-07-13T11:00:12.012Z,993.71
2018-07-13T11:01:12.004Z,993.72
2018-07-13T11:02:12.014Z,993.71
2018-07-13T11:03:12.009Z,993.66
2018-07-13T11:04:12.012Z,993.68
2018-07-13T11:05:12.017Z,993.66
2018-07-13T11:06:12.023Z,993.63
2018-07-13T11:07:12.023Z,993.67
2018-07-13T11:08:12.029Z,993.6
2018-07-13T11:09:12.035Z,993.63
2018-07-13T11:10:12.040Z,993.59
2018-07-13T11:11:12.044Z,993.63
2018-07-13T11:12:12.058Z,993.6
2018-07-13T11:13:12.054Z,993.61
2018-07-13T11:14:12.073Z,993.59
2018-07-13T11:15:12.074Z,993.61
2018-07-13T11:16:12.069Z,993.57
2018-07-13T11:17:12.074Z,993.6
2018-07-13T11:18:12.080Z,993.59
2018-07-13T11:19:12.086Z,993.58
2018-07-13T11:20:12.106Z,993.6
2018-07-13T11:21:12.093Z,993.55
2018-07-13T11:22:12.102Z,993.55
2018-07-13T11:23:12.105Z,993.5
2018-07-13T11:24:12.121Z,993.51
2018-07-13T11:25:12.117Z,993.43
2018-07-13T11:26:12.129Z,993.42
2018-07-13T11:27:12.126Z,993.45
2018-07-13T11:28:12.136Z,993.44
2018-07-13T11:29:12.143Z,993.42
2018-07-13T11:30:12.156Z,993.4
2018-07-13T11:31:12.150Z,993.3
2018-07-13T11:32:12.156Z,993.29
2018-07-13T11:33:12.168Z,993.28
2018-07-13T11:34:12.163Z,993.26
2018-07-13T11:35:12.170Z,993.24
2018-07-13T11:36:12.173Z,993.29
2018-07-13T11:37:12.403Z,993.28
2018-07-13T11:38:12.185Z,993.27
2018-07-13T11:39:12.191Z,993.28
2018-07-13T11:40:12.200Z,993.31
2018-07-13T11:41:12.204Z,993.33
2018-07-13T11:42:12.215Z,993.31
2018-07-13T11:43:12.214Z,993.27
2018-07-13T11:44:13.071Z,993.34
2018-07-13T11:45:12.226Z,993.29
2018-07-13T11:46:12.228Z,993.35
2018-07-13T11:47:12.235Z,993.31
2018-07-13T11:48:12.245Z,993.31
2018-07-13T11:49:12.247Z,993.25
2018-07-13T11:50:12.250Z,993.28
2018-07-13T11:51:12.257Z,993.28
2018-07-13T11:52:12.291Z,993.24
2018-07-13T11:53:12.265Z,993.22
2018-07-13T11:54:12.274Z,993.24
2018-07-13T11:55:12.278Z,993.19
2018-07-13T11:56:12.281Z,993.21
2018-07-13T11:57:12.289Z,993.21
2018-07-13T11:58:12.295Z,993.17
2018-07-13T11:59:12.308Z,993.19
2018-07-13T12:00:12.308Z,993.18
2018-07-13T12:01:12.311Z,993.18
2018-07-13T12:02:12.331Z,993.18
2018-07-13T12:03:12.321Z,993.14
2018-07-13T12:04:12.331Z,993.15
2018-07-13T12:05:12.334Z,993.17
2018-07-13T12:06:12.349Z,993.18
2018-07-13T12:07:12.348Z,993.18
2018-07-13T12:08:12.353Z,993.17
2018-07-13T12:09:12.361Z,993.16
2018-07-13T12:10:12.372Z,993.16
2018-07-13T12:11:12.373Z,993.14
2018-07-13T12:12:12.383Z,993.06
2018-07-13T12:13:12.383Z,993.08
2018-07-13T12:14:12.388Z,993.03
2018-07-13T12:15:12.399Z,993.11
2018-07-13T12:16:12.406Z,993.08
2018-07-13T12:17:12.406Z,993.07
2018-07-13T12:18:12.413Z,993.03
2018-07-13T12:19:12.422Z,993.03
2018-07-13T12:20:12.451Z,993
2018-07-13T12:21:12.428Z,992.96
2018-07-13T12:22:12.436Z,992.96
2018-07-13T12:23:12.473Z,992.94
2018-07-13T12:24:12.449Z,992.96
2018-07-13T12:25:12.454Z,992.97
2018-07-13T12:26:12.456Z,992.95
2018-07-13T12:27:12.465Z,992.96
2018-07-13T12:28:12.474Z,993.01
2018-07-13T12:29:12.477Z,993.01
2018-07-13T12:30:12.484Z,993.01
2018-07-13T12:31:12.495Z,992.97
2018-07-13T12:32:12.497Z,992.97
2018-07-13T12:33:12.503Z,992.95
2018-07-13T12:34:12.509Z,992.92
2018-07-13T12:35:12.516Z,992.89
2018-07-13T12:36:12.521Z,992.91
2018-07-13T12:37:12.585Z,992.89
2018-07-13T12:38:12.540Z,992.88
2018-07-13T12:39:12.541Z,992.89
2018-07-13T12:40:12.547Z,992.85
2018-07-13T12:41:12.550Z,992.86
2018-07-13T12:42:12.564Z,992.84
2018-07-13T12:43:12.558Z,992.77
2018-07-13T12:44:12.565Z,992.81
2018-07-13T12:45:12.574Z,992.81
2018-07-13T12:46:12.577Z,992.72
2018-07-13T12:47:12.587Z,992.75
2018-07-13T12:48:12.589Z,992.76
2018-07-13T12:49:12.671Z,992.76
2018-07-13T12:50:12.598Z,992.76
2018-07-13T12:51:12.603Z,992.75
2018-07-13T12:52:12.613Z,992.76
2018-07-13T12:53:12.615Z,992.75
2018-07-13T12:54:12.745Z,992.67
2018-07-13T12:55:12.631Z,992.71
2018-07-13T12:56:12.635Z,992.69
2018-07-13T12:57:12.637Z,992.69
2018-07-13T12:58:12.642Z,992.62
2018-07-13T12:59:12.649Z,992.63
2018-07-13T13:00:12.657Z,992.62
2018-07-13T13:01:12.661Z,992.65
2018-07-13T13:02:12.666Z,992.62
2018-07-13T13:03:12.671Z,992.63
2018-07-13T13:04:12.683Z,992.59
2018-07-13T13:05:12.690Z,992.57
2018-07-13T13:06:12.684Z,992.59
2018-07-13T13:07:12.692Z,992.6
2018-07-13T13:08:12.699Z,992.6
2018-07-13T13:09:12.698Z,992.6
2018-07-13T13:10:12.706Z,992.58
2018-07-13T13:11:12.713Z,992.56